createdAt,value
2019-03-13T00:03:17.514Z,43.53
2019-03-13T00:08:23.745Z,48.60
2019-03-13T00:13:31.252Z,47.20
2019-03-13T00:18:39.051Z,43.60
2019-03-13T00:23:46.354Z,45.03
2019-03-13T00:28:53.304Z,39.97
2019-03-13T00:34:01.040Z,47.47
2019-03-13T00:39:08.173Z,49.10
2019-03-13T00:44:14.292Z,45.47
2019-03-13T00:49:21.475Z,45.53
2019-03-13T00:54:29.388Z,46.93
2019-03-13T00:59:37.087Z,45.87
2019-03-13T01:04:49.838Z,45.53
2019-03-13T01:09:58.159Z,50.37
2019-03-13T01:15:04.935Z,44.37
2019-03-13T01:20:12.394Z,46.47
2019-03-13T01:25:20.114Z,48.47
2019-03-13T01:30:28.731Z,42.87
2019-03-13T01:35:42.467Z,42.57
2019-03-13T01:40:50.466Z,41.87
2019-03-13T01:45:58.444Z,38.73
2019-03-13T01:51:04.826Z,45.00
2019-03-13T01:56:11.315Z,42.63
2019-03-13T02:01:19.027Z,43.80
2019-03-13T02:06:25.898Z,51.40
2019-03-13T02:11:35.447Z,37.80
2019-03-13T02:16:43.111Z,38.53
2019-03-13T02:21:50.646Z,41.37
2019-03-13T02:26:58.271Z,55.97
2019-03-13T02:32:04.491Z,53.00
2019-03-13T02:37:12.221Z,56.53
2019-03-13T02:42:19.947Z,53.13
2019-03-13T02:47:26.093Z,50.57
2019-03-13T02:52:33.379Z,45.63
2019-03-13T02:57:41.135Z,59.27
2019-03-13T03:02:52.223Z,56.43
2019-03-13T03:08:00.083Z,52.20
2019-03-13T03:13:08.065Z,50.63
2019-03-13T03:18:15.671Z,59.93
2019-03-13T03:23:22.600Z,58.50
2019-03-13T03:28:30.338Z,58.13
2019-03-13T03:33:37.731Z,55.77
2019-03-13T03:38:45.521Z,60.73
2019-03-13T03:43:53.240Z,55.40
2019-03-13T03:49:01.228Z,61.13
2019-03-13T03:54:08.671Z,57.30
2019-03-13T03:59:14.787Z,57.40
2019-03-13T04:04:22.924Z,63.60
2019-03-13T04:09:30.795Z,53.90
2019-03-13T04:14:38.340Z,51.83
2019-03-13T04:19:45.019Z,51.03
2019-03-13T04:24:53.232Z,54.93
2019-03-13T04:30:01.182Z,58.27
2019-03-13T04:35:09.204Z,50.20
2019-03-13T04:40:17.043Z,49.20
2019-03-13T04:45:24.959Z,49.27
2019-03-13T04:50:32.460Z,42.17
2019-03-13T04:55:40.217Z,43.43
2019-03-13T05:00:47.887Z,49.63
2019-03-13T05:06:03.473Z,42.10
2019-03-13T05:11:11.143Z,54.33
2019-03-13T05:16:18.882Z,48.47
2019-03-13T05:21:25.108Z,49.17
2019-03-13T05:26:32.523Z,44.37
2019-03-13T05:31:40.500Z,45.33
2019-03-13T05:36:48.117Z,36.30
2019-03-13T05:41:55.469Z,39.33
2019-03-13T05:47:03.048Z,44.60
2019-03-13T05:52:09.664Z,37.67
2019-03-13T05:57:16.622Z,43.97
2019-03-13T06:02:23.819Z,42.23
2019-03-13T06:07:30.358Z,37.67
2019-03-13T06:12:38.298Z,47.93
2019-03-13T06:17:44.356Z,37.90
2019-03-13T06:22:50.516Z,42.73
2019-03-13T06:27:56.704Z,39.77
2019-03-13T06:33:04.191Z,37.40
2019-03-13T06:38:11.074Z,39.63
2019-03-13T06:43:18.650Z,37.80
2019-03-13T06:48:25.686Z,45.17
2019-03-13T06:53:33.395Z,36.07
2019-03-13T06:58:59.939Z,36.23
2019-03-13T07:04:26.390Z,35.53
2019-03-13T07:09:39.695Z,35.80
2019-03-13T07:15:20.239Z,39.57
2019-03-13T07:20:56.316Z,36.23
2019-03-13T07:26:21.036Z,35.60
2019-03-13T07:31:38.206Z,35.57
2019-03-13T07:37:07.671Z,35.23
2019-03-13T07:42:32.507Z,39.47
2019-03-13T07:48:05.068Z,31.67
2019-03-13T07:53:38.177Z,85.20
2019-03-13T07:59:13.435Z,66.40
2019-03-13T08:04:31.125Z,56.17
2019-03-13T08:10:06.770Z,38.17
2019-03-13T08:15:42.110Z,34.20
2019-03-13T08:21:17.941Z,31.20
2019-03-13T08:26:33.313Z,37.57
2019-03-13T08:31:53.626Z,55.30
2019-03-13T08:37:21.251Z,39.97
2019-03-13T08:42:44.094Z,23.53
2019-03-13T08:48:14.876Z,12.90
2019-03-13T08:53:56.040Z,8.93
2019-03-13T08:59:23.526Z,9.30
2019-03-13T09:04:41.924Z,8.33
2019-03-13T09:10:16.159Z,6.73
2019-03-13T09:15:43.780Z,15.53
2019-03-13T09:21:12.780Z,13.00
2019-03-13T09:26:37.927Z,23.80
2019-03-13T09:32:04.389Z,16.50
2019-03-13T09:37:37.233Z,16.93
2019-03-13T09:43:00.773Z,15.83
2019-03-13T09:48:27.155Z,11.27
2019-03-13T09:53:50.512Z,17.50
2019-03-13T09:59:26.781Z,9.60
2019-03-13T10:04:55.480Z,16.10
2019-03-13T10:10:14.923Z,7.20
2019-03-13T10:15:44.425Z,10.60
2019-03-13T10:21:12.743Z,9.83
2019-03-13T10:26:40.683Z,11.63
2019-03-13T10:31:53.955Z,11.40
2019-03-13T10:37:14.613Z,8.83
2019-03-13T10:42:46.003Z,8.73
2019-03-13T10:48:09.509Z,6.27
2019-03-13T10:53:49.923Z,5.53
2019-03-13T10:59:07.328Z,5.80
2019-03-13T11:04:50.913Z,7.93
2019-03-13T11:10:14.219Z,11.23
2019-03-13T11:15:39.706Z,9.07
2019-03-13T11:21:11.724Z,9.03
2019-03-13T11:26:49.954Z,7.07
2019-03-13T11:32:18.203Z,7.10
2019-03-13T11:37:47.744Z,4.73
2019-03-13T11:43:18.866Z,7.87
2019-03-13T11:48:40.879Z,7.43
2019-03-13T11:54:22.337Z,8.83
2019-03-13T11:59:44.993Z,9.90
2019-03-13T12:05:13.746Z,7.27
2019-03-13T12:10:49.419Z,8.70
2019-03-13T12:16:14.430Z,10.23
2019-03-13T12:21:43.326Z,7.33
2019-03-13T12:27:08.320Z,7.97
2019-03-13T12:32:28.412Z,9.73
2019-03-13T12:38:00.035Z,12.70
2019-03-13T12:43:25.906Z,16.83
2019-03-13T12:48:40.732Z,13.20
2019-03-13T12:53:59.542Z,11.73
2019-03-13T12:59:23.463Z,14.60
2019-03-13T13:04:47.142Z,15.93
2019-03-13T13:10:11.490Z,10.67
2019-03-13T13:15:36.746Z,11.63
2019-03-13T13:20:43.598Z,10.37
2019-03-13T13:25:51.307Z,10.70
2019-03-13T13:30:58.871Z,11.70
2019-03-13T13:36:04.891Z,11.57
2019-03-13T13:41:12.179Z,9.23
2019-03-13T13:46:28.488Z,14.20
2019-03-13T13:51:34.964Z,16.90
2019-03-13T13:56:42.559Z,12.10
2019-03-13T14:01:49.530Z,12.43
2019-03-13T14:06:56.115Z,16.60
2019-03-13T14:12:03.132Z,9.50
2019-03-13T14:17:09.185Z,15.93
2019-03-13T14:22:15.769Z,22.17
2019-03-13T14:27:22.795Z,15.27
2019-03-13T14:32:28.840Z,16.47
2019-03-13T14:37:35.169Z,12.47
2019-03-13T14:42:42.507Z,13.70
2019-03-13T14:47:50.034Z,13.73
2019-03-13T14:52:55.930Z,13.10
2019-03-13T14:58:02.783Z,9.43
2019-03-13T15:03:10.608Z,14.20
2019-03-13T15:08:18.127Z,9.77
2019-03-13T15:13:24.008Z,9.60
2019-03-13T15:18:30.983Z,11.83
2019-03-13T15:23:36.928Z,13.30
2019-03-13T15:28:43.975Z,14.40
2019-03-13T15:33:51.886Z,18.37
2019-03-13T15:38:57.934Z,15.03
2019-03-13T15:44:03.934Z,10.63
2019-03-13T15:49:10.758Z,16.03
2019-03-13T15:54:18.472Z,13.97
2019-03-13T15:59:24.554Z,10.27
2019-03-13T16:04:31.579Z,14.97
2019-03-13T16:09:39.301Z,14.63
2019-03-13T16:14:45.468Z,15.53
2019-03-13T16:19:52.928Z,10.93
2019-03-13T16:24:59.708Z,14.00
2019-03-13T16:30:10.431Z,17.20
2019-03-13T16:35:16.857Z,20.87
2019-03-13T16:40:23.728Z,15.43
2019-03-13T16:45:31.274Z,13.77
2019-03-13T16:50:39.029Z,10.87
2019-03-13T16:55:45.010Z,11.17
2019-03-13T17:00:53.076Z,9.33
2019-03-13T17:06:00.758Z,15.27
2019-03-13T17:11:08.262Z,12.13
2019-03-13T17:16:15.949Z,10.73
2019-03-13T17:21:23.606Z,8.87
2019-03-13T17:26:31.166Z,9.97
2019-03-13T17:31:38.833Z,13.83
2019-03-13T17:36:44.718Z,12.73
2019-03-13T17:41:51.622Z,13.10
2019-03-13T17:46:59.335Z,13.90
2019-03-13T17:52:07.028Z,16.40
2019-03-13T17:57:13.845Z,16.80
2019-03-13T18:02:21.614Z,15.27
2019-03-13T18:07:29.237Z,19.97
2019-03-13T18:12:35.415Z,22.87
2019-03-13T18:17:42.288Z,24.37
2019-03-13T18:22:48.239Z,21.23
2019-03-13T18:27:54.567Z,17.33
2019-03-13T18:33:01.603Z,21.07
2019-03-13T18:38:09.217Z,20.73
2019-03-13T18:43:15.304Z,20.00
2019-03-13T18:48:22.171Z,27.67
2019-03-13T18:53:29.477Z,31.33
2019-03-13T18:58:36.995Z,23.93
2019-03-13T19:03:43.747Z,26.30
2019-03-13T19:08:49.822Z,26.73
2019-03-13T19:13:58.285Z,26.57
2019-03-13T19:19:04.594Z,38.27
2019-03-13T19:24:12.292Z,30.67
2019-03-13T19:29:20.764Z,24.83
2019-03-13T19:34:27.834Z,26.27
2019-03-13T19:39:33.794Z,24.00
2019-03-13T19:44:41.285Z,22.20
2019-03-13T19:49:47.906Z,23.57
2019-03-13T19:54:54.012Z,23.33
2019-03-13T20:00:01.407Z,18.13
2019-03-13T20:05:08.228Z,24.73
2019-03-13T20:10:16.822Z,21.20
2019-03-13T20:15:24.991Z,20.23
2019-03-13T20:20:32.195Z,19.07
2019-03-13T20:25:39.292Z,24.83
2019-03-13T20:30:46.080Z,25.33
2019-03-13T20:35:53.315Z,22.30
2019-03-13T20:41:00.972Z,16.50
2019-03-13T20:46:08.666Z,18.40
2019-03-13T20:51:15.391Z,27.37
2019-03-13T20:56:22.987Z,23.33
2019-03-13T21:01:30.518Z,25.93
2019-03-13T21:06:38.314Z,19.63
2019-03-13T21:11:44.371Z,17.90
2019-03-13T21:16:51.514Z,21.47
2019-03-13T21:22:00.582Z,24.53
2019-03-13T21:27:06.507Z,18.83
2019-03-13T21:32:14.294Z,22.13
2019-03-13T21:37:20.824Z,18.33
2019-03-13T21:42:28.562Z,19.73
2019-03-13T21:47:35.586Z,23.23
2019-03-13T21:52:43.017Z,19.63
2019-03-13T21:57:52.247Z,30.73
2019-03-13T22:02:59.154Z,23.33
2019-03-13T22:08:06.503Z,22.63
2019-03-13T22:13:14.054Z,18.60
2019-03-13T22:18:21.647Z,21.73
2019-03-13T22:23:27.650Z,27.77
2019-03-13T22:28:35.446Z,29.43
2019-03-13T22:33:43.596Z,14.63
2019-03-13T22:38:50.891Z,22.73
2019-03-13T22:43:58.444Z,19.57
2019-03-13T22:49:04.333Z,22.03
2019-03-13T22:54:10.910Z,19.13
2019-03-13T22:59:18.642Z,18.67
2019-03-13T23:04:24.896Z,20.27
2019-03-13T23:09:31.648Z,21.13
2019-03-13T23:14:39.197Z,25.13
2019-03-13T23:19:45.247Z,18.37
2019-03-13T23:24:52.542Z,23.63
2019-03-13T23:30:00.377Z,25.07
2019-03-13T23:35:08.263Z,19.97
2019-03-13T23:40:15.857Z,29.90
2019-03-13T23:45:23.195Z,20.17
2019-03-13T23:50:30.192Z,21.80
2019-03-13T23:55:37.695Z,21.00
